首页
METAR-TAF:

METAR-TAF

机场 :

墨爾本機場

墨尔本, 澳大利亚

纬度: 37-40-24S, 经度: 144-50-36E, 海拔: 132米

当前天气观测

该预报发布于16分钟前的04:00 UTC
风速14节,风向
温度 19°C
湿度 40%
气压 1018 hPa
能见度10公里或以上
散云层高于3800英尺
散云层高于5000英尺

METAR: YMML 120400Z 17014KT 9999 SCT038 SCT050 19/05 Q1018

时间: 15:16 (04:16 UTC)

预报

该预报发布于2小时和42分钟前的01:34 UTC
预报有效从12日的 01点(UTC)到 13日的 06点(UTC)
风速15节,风向
能见度10公里或以上
少量云层高于3000英尺
多云层高于4500英尺
成为
从 12日的 09点(UTC)到 12日的 11点(UTC)
风速10节,风向南转西南
能见度10公里或以上
多云层高于3000英尺
从 12日的 1700点(UTC)
风速8节,风向西转西南
能见度10公里或以上
少量云层高于2000英尺
多云层高于2500英尺
成为
从 12日的 23点(UTC)到 13日的 01点(UTC)
风速13节,风向西南
能见度10公里或以上
多云层高于4000英尺

TAF: YMML 120134Z 1201/1306 18015KT 9999 FEW030 BKN045 BECMG 1209/1211 21010KT 9999 BKN030 FM121700 25008KT 9999 FEW020 BKN025 BECMG 1223/1301 22013KT 9999 BKN040

超过4000个机场的气象观测和天气预报(METAR&TAF报告)。

可查询的气象台以黄色和红色小点在地图上表示。

将鼠标移到小点上方,可查看气象台名称。

然后点击查看天气观测和预报。

如需切换地图:点击带黑十字的绿色按钮放大地图;点击带横线的绿色按钮缩小地图;或者点击绿色箭头查看邻近地区的地图。


METAR-TAF: